createdAt,value
2018-01-11T00:01:41.493Z,21.26
2018-01-11T00:04:08.990Z,21.26
2018-01-11T00:06:36.565Z,21.27
2018-01-11T00:09:04.166Z,21.28
2018-01-11T00:11:31.734Z,21.27
2018-01-11T00:13:59.291Z,21.28
2018-01-11T00:16:27.008Z,21.27
2018-01-11T00:18:54.567Z,21.27
2018-01-11T00:21:22.063Z,21.27
2018-01-11T00:23:49.558Z,21.26
2018-01-11T00:26:17.124Z,21.27
2018-01-11T00:28:44.630Z,21.28
2018-01-11T00:31:12.121Z,21.27
2018-01-11T00:33:39.630Z,21.28
2018-01-11T00:36:07.121Z,21.27
2018-01-11T00:38:34.683Z,21.27
2018-01-11T00:41:02.178Z,21.27
2018-01-11T00:43:29.673Z,21.27
2018-01-11T00:45:57.231Z,21.27
2018-01-11T00:48:24.820Z,21.26
2018-01-11T00:50:52.399Z,21.28
2018-01-11T00:53:19.955Z,21.27
2018-01-11T00:55:47.445Z,21.27
2018-01-11T00:58:14.940Z,21.28
2018-01-11T01:00:42.525Z,21.27
2018-01-11T01:03:10.030Z,21.26
2018-01-11T01:05:37.581Z,21.25
2018-01-11T01:08:05.147Z,21.25
2018-01-11T01:10:32.744Z,21.26
2018-01-11T01:13:00.249Z,21.26
2018-01-11T01:15:27.816Z,21.26
2018-01-11T01:17:55.310Z,21.27
2018-01-11T01:20:22.870Z,21.27
2018-01-11T01:22:50.597Z,21.26
2018-01-11T01:25:18.156Z,21.25
2018-01-11T01:27:45.748Z,21.25
2018-01-11T01:30:13.261Z,21.25
2018-01-11T01:32:40.757Z,21.25
2018-01-11T01:35:08.326Z,21.26
2018-01-11T01:37:35.900Z,21.26
2018-01-11T01:40:03.455Z,21.27
2018-01-11T01:42:31.017Z,21.27
2018-01-11T01:44:58.553Z,21.26
2018-01-11T01:47:26.053Z,21.27
2018-01-11T01:49:53.550Z,21.26
2018-01-11T01:52:21.109Z,21.26
2018-01-11T01:54:48.662Z,21.26
2018-01-11T01:57:16.216Z,21.25
2018-01-11T01:59:43.787Z,21.26
2018-01-11T02:02:11.339Z,21.27
2018-01-11T02:04:38.838Z,21.27
2018-01-11T02:07:06.387Z,21.26
2018-01-11T02:09:33.955Z,21.26
2018-01-11T02:12:01.445Z,21.26
2018-01-11T02:14:28.946Z,21.26
2018-01-11T02:16:56.498Z,21.26
2018-01-11T02:19:24.051Z,21.25
2018-01-11T02:21:51.623Z,21.27
2018-01-11T02:24:19.223Z,21.27
2018-01-11T02:26:46.781Z,21.27
2018-01-11T02:29:14.273Z,21.27
2018-01-11T02:31:41.769Z,21.27
2018-01-11T02:34:09.328Z,21.27
2018-01-11T02:36:36.891Z,21.27
2018-01-11T02:39:04.420Z,21.27
2018-01-11T02:41:32.009Z,21.28
2018-01-11T02:43:59.574Z,21.27
2018-01-11T02:46:27.070Z,21.28
2018-01-11T02:48:54.633Z,21.28
2018-01-11T02:51:22.134Z,21.27
2018-01-11T02:53:49.692Z,21.27
2018-01-11T02:56:17.184Z,21.28
2018-01-11T02:58:44.784Z,21.27
2018-01-11T03:01:12.345Z,21.27
2018-01-11T03:03:39.830Z,21.28
2018-01-11T03:06:07.327Z,21.28
2018-01-11T03:08:34.817Z,21.29
2018-01-11T03:11:02.376Z,21.29
2018-01-11T03:13:29.954Z,21.29
2018-01-11T03:15:57.516Z,21.27
2018-01-11T03:18:25.078Z,21.28
2018-01-11T03:20:52.630Z,21.27
2018-01-11T03:23:20.121Z,21.27
2018-01-11T03:25:47.683Z,21.26
2018-01-11T03:28:15.174Z,21.27
2018-01-11T03:30:42.666Z,21.27
2018-01-11T03:33:10.165Z,21.28
2018-01-11T03:35:37.661Z,21.28
2018-01-11T03:38:05.263Z,21.28
2018-01-11T03:40:32.762Z,21.26
2018-01-11T03:43:00.269Z,21.26
2018-01-11T03:45:27.769Z,21.26
2018-01-11T03:47:55.319Z,21.26
2018-01-11T03:50:22.826Z,21.26
2018-01-11T03:52:50.383Z,21.28
2018-01-11T03:55:17.919Z,21.30
2018-01-11T03:57:45.479Z,21.33
2018-01-11T04:00:13.040Z,21.35
2018-01-11T04:02:40.594Z,21.36
2018-01-11T04:05:08.152Z,21.37
2018-01-11T04:07:35.744Z,21.36
2018-01-11T04:10:03.251Z,21.37
2018-01-11T04:12:30.757Z,21.40
2018-01-11T04:14:58.313Z,21.42
2018-01-11T04:17:25.815Z,21.44
2018-01-11T04:19:53.317Z,21.43
2018-01-11T04:22:20.879Z,21.42
2018-01-11T04:24:48.401Z,21.40
2018-01-11T04:27:15.969Z,21.39
2018-01-11T04:29:43.483Z,21.40
2018-01-11T04:32:11.055Z,21.39
2018-01-11T04:34:38.557Z,21.40
2018-01-11T04:37:06.116Z,21.40
2018-01-11T04:39:33.679Z,21.42
2018-01-11T04:42:01.168Z,21.42
2018-01-11T04:44:28.661Z,21.43
2018-01-11T04:46:56.166Z,21.41
2018-01-11T04:49:23.669Z,21.41
2018-01-11T04:51:51.264Z,21.39
2018-01-11T04:54:18.762Z,21.38
2018-01-11T04:56:46.250Z,21.40
2018-01-11T04:59:13.834Z,21.39
2018-01-11T05:01:41.328Z,21.39
2018-01-11T05:04:08.919Z,21.38
2018-01-11T05:06:36.477Z,21.37
2018-01-11T05:09:03.982Z,21.37
2018-01-11T05:11:31.551Z,21.36
2018-01-11T05:13:59.049Z,21.36
2018-01-11T05:16:26.652Z,21.37
2018-01-11T05:18:54.159Z,21.36
2018-01-11T05:21:21.764Z,21.36
2018-01-11T05:23:49.259Z,21.35
2018-01-11T05:26:16.747Z,21.35
2018-01-11T05:28:44.238Z,21.33
2018-01-11T05:31:11.737Z,21.33
2018-01-11T05:33:39.305Z,21.32
2018-01-11T05:36:06.865Z,21.32
2018-01-11T05:38:34.397Z,21.33
2018-01-11T05:41:01.956Z,21.33
2018-01-11T05:43:29.573Z,21.33
2018-01-11T05:45:57.135Z,21.32
2018-01-11T05:48:24.696Z,21.33
2018-01-11T05:50:52.263Z,21.32
2018-01-11T05:53:19.748Z,21.31
2018-01-11T05:55:47.304Z,21.31
2018-01-11T05:58:14.859Z,21.29
2018-01-11T06:00:42.422Z,21.30
2018-01-11T06:03:09.984Z,21.29
2018-01-11T06:05:37.470Z,21.29
2018-01-11T06:08:05.044Z,21.29
2018-01-11T06:10:32.611Z,21.30
2018-01-11T06:13:00.112Z,21.30
2018-01-11T06:15:27.664Z,21.29
2018-01-11T06:17:55.221Z,21.30
2018-01-11T06:20:22.714Z,21.28
2018-01-11T06:22:50.524Z,21.28
2018-01-11T06:25:18.079Z,21.28
2018-01-11T06:27:45.582Z,21.28
2018-01-11T06:30:13.139Z,21.28
2018-01-11T06:35:14.441Z,21.29
2018-01-11T06:37:42.012Z,21.28
2018-01-11T06:40:09.530Z,21.27
2018-01-11T06:42:37.095Z,21.26
2018-01-11T06:45:04.591Z,21.26
2018-01-11T06:47:32.089Z,21.26
2018-01-11T06:49:59.577Z,21.26
2018-01-11T06:52:27.068Z,21.26
2018-01-11T06:54:54.554Z,21.27
2018-01-11T06:57:22.376Z,21.27
2018-01-11T06:59:49.940Z,21.26
2018-01-11T07:02:17.440Z,21.25
2018-01-11T07:04:44.954Z,21.25
2018-01-11T07:07:12.510Z,21.25
2018-01-11T07:09:40.118Z,21.26
2018-01-11T07:12:07.609Z,21.26
2018-01-11T07:14:35.094Z,21.27
2018-01-11T07:17:02.585Z,21.27
2018-01-11T07:19:30.081Z,21.27
2018-01-11T07:21:57.576Z,21.26
2018-01-11T07:24:25.144Z,21.25
2018-01-11T07:26:52.712Z,21.25
2018-01-11T07:29:20.207Z,21.24
2018-01-11T07:31:47.799Z,21.24
2018-01-11T07:34:15.426Z,21.24
2018-01-11T07:36:42.969Z,21.25
2018-01-11T07:39:10.485Z,21.24
2018-01-11T07:41:38.071Z,21.25
2018-01-11T07:44:05.572Z,21.24
2018-01-11T07:46:33.149Z,21.23
2018-01-11T07:49:00.733Z,21.22
2018-01-11T07:51:28.229Z,21.23
2018-01-11T07:53:55.797Z,21.24
2018-01-11T07:56:24.055Z,21.25
2018-01-11T07:58:51.577Z,21.25
2018-01-11T08:01:19.173Z,21.26
2018-01-11T08:03:46.776Z,21.24
2018-01-11T08:06:14.296Z,21.25
2018-01-11T08:08:41.925Z,21.23
2018-01-11T08:11:09.564Z,21.23
2018-01-11T08:13:37.178Z,21.23
2018-01-11T08:16:04.784Z,21.22
2018-01-11T08:18:32.416Z,21.23
2018-01-11T08:20:59.959Z,21.22
2018-01-11T08:23:27.590Z,21.23
2018-01-11T08:25:55.198Z,21.22
2018-01-11T08:28:22.852Z,21.22
2018-01-11T08:30:50.497Z,21.20
2018-01-11T08:33:19.030Z,21.21
2018-01-11T08:35:46.647Z,21.22
2018-01-11T08:38:14.262Z,21.23
2018-01-11T08:40:41.891Z,21.23
2018-01-11T08:43:09.443Z,21.23
2018-01-11T08:45:37.062Z,21.23
2018-01-11T08:48:04.686Z,21.22
2018-01-11T08:50:32.286Z,21.22
2018-01-11T08:52:59.957Z,21.21
2018-01-11T08:55:27.622Z,21.22
2018-01-11T08:57:55.240Z,21.22
2018-01-11T09:00:22.818Z,21.23
2018-01-11T09:02:50.356Z,21.23
2018-01-11T09:05:17.955Z,21.22
2018-01-11T09:07:45.597Z,21.23
2018-01-11T09:10:13.186Z,21.22
2018-01-11T09:12:40.730Z,21.22
2018-01-11T09:15:08.365Z,21.21
2018-01-11T09:17:36.059Z,21.22
2018-01-11T09:20:03.592Z,21.20
2018-01-11T09:22:31.193Z,21.22
2018-01-11T09:24:58.770Z,21.22
2018-01-11T09:27:26.313Z,21.23
2018-01-11T09:29:53.891Z,21.22
2018-01-11T09:32:21.480Z,21.21
2018-01-11T09:34:49.113Z,21.21
2018-01-11T09:37:16.712Z,21.21
2018-01-11T09:39:44.313Z,21.21
2018-01-11T09:42:11.915Z,21.21
2018-01-11T09:44:39.547Z,21.20
2018-01-11T09:47:07.190Z,21.20
2018-01-11T09:49:34.767Z,21.20
2018-01-11T09:52:02.331Z,21.20
2018-01-11T09:54:29.946Z,21.20
2018-01-11T09:56:57.581Z,21.21
2018-01-11T09:59:25.189Z,21.20
2018-01-11T10:01:52.829Z,21.18
2018-01-11T10:04:20.488Z,21.22
2018-01-11T10:06:48.098Z,21.23
2018-01-11T10:09:15.714Z,21.22
2018-01-11T10:11:43.299Z,21.22
2018-01-11T10:14:10.967Z,21.21
2018-01-11T10:16:38.574Z,21.19
2018-01-11T10:19:06.198Z,21.20
2018-01-11T10:21:33.830Z,21.21
2018-01-11T10:24:01.473Z,21.21
2018-01-11T10:26:29.107Z,21.21
2018-01-11T10:28:56.735Z,21.19
2018-01-11T10:31:24.401Z,21.20
2018-01-11T10:33:52.023Z,21.20
2018-01-11T10:36:19.628Z,21.21
2018-01-11T10:38:47.150Z,21.20
2018-01-11T10:41:14.672Z,21.20
2018-01-11T10:43:42.271Z,21.19
2018-01-11T10:46:09.892Z,21.20
2018-01-11T10:48:37.513Z,21.21
2018-01-11T10:51:05.035Z,21.22
2018-01-11T10:53:32.632Z,21.21
2018-01-11T10:56:00.307Z,21.21
2018-01-11T10:58:27.909Z,21.21
2018-01-11T11:01:00.982Z,21.22
2018-01-11T11:03:28.556Z,21.22
2018-01-11T11:05:56.106Z,21.20
2018-01-11T11:08:23.717Z,21.21
2018-01-11T11:10:51.310Z,21.20
2018-01-11T11:13:18.917Z,21.21
2018-01-11T11:15:46.530Z,21.22
2018-01-11T11:18:14.070Z,21.22
2018-01-11T11:20:41.590Z,21.23
2018-01-11T11:23:09.264Z,21.24
2018-01-11T11:25:36.893Z,21.24
2018-01-11T11:28:04.549Z,21.24
2018-01-11T11:30:32.228Z,21.23
2018-01-11T11:32:59.885Z,21.23
2018-01-11T11:35:27.512Z,21.24
2018-01-11T11:37:55.106Z,21.26
2018-01-11T11:40:22.748Z,21.26
2018-01-11T11:42:50.422Z,21.27
2018-01-11T11:45:18.096Z,21.27
2018-01-11T11:47:45.730Z,21.27
2018-01-11T11:50:13.373Z,21.27
2018-01-11T11:52:40.992Z,21.26
2018-01-11T11:55:08.598Z,21.26
2018-01-11T11:57:36.296Z,21.27
2018-01-11T12:00:04.029Z,21.26
2018-01-11T12:02:31.684Z,21.27
2018-01-11T12:04:59.321Z,21.26
2018-01-11T12:07:26.977Z,21.26
2018-01-11T12:09:54.628Z,21.26
2018-01-11T12:12:22.234Z,21.26
2018-01-11T12:14:49.961Z,21.26
2018-01-11T12:17:17.669Z,21.25
2018-01-11T12:19:45.321Z,21.26
2018-01-11T12:27:18.490Z,21.25
2018-01-11T12:29:46.105Z,21.26
2018-01-11T12:32:13.698Z,21.26
2018-01-11T12:34:41.260Z,21.27
2018-01-11T12:37:08.861Z,21.26
2018-01-11T12:39:36.510Z,21.25
2018-01-11T12:42:04.141Z,21.25
2018-01-11T12:44:31.713Z,21.25
2018-01-11T12:46:59.282Z,21.26
2018-01-11T12:49:26.838Z,21.25
2018-01-11T12:51:55.039Z,21.27
2018-01-11T12:54:22.657Z,21.26
2018-01-11T12:56:50.179Z,21.27
2018-01-11T12:59:17.743Z,21.26
2018-01-11T13:01:45.302Z,21.27
2018-01-11T13:04:12.974Z,21.26
2018-01-11T13:06:40.620Z,21.27
2018-01-11T13:09:08.248Z,21.27
2018-01-11T13:11:35.922Z,21.27
2018-01-11T13:14:04.408Z,21.26
2018-01-11T13:16:31.955Z,21.27
2018-01-11T13:18:59.564Z,21.26
2018-01-11T13:21:27.118Z,21.26
2018-01-11T13:23:54.684Z,21.26
2018-01-11T13:26:23.983Z,21.24
2018-01-11T13:28:51.514Z,21.26
2018-01-11T13:31:19.123Z,21.27
2018-01-11T13:33:46.696Z,21.27
2018-01-11T13:36:14.185Z,21.27
2018-01-11T13:38:41.677Z,21.28
2018-01-11T13:41:09.186Z,21.27
2018-01-11T13:43:36.703Z,21.26
2018-01-11T13:46:04.195Z,21.27
2018-01-11T13:48:31.801Z,21.27
2018-01-11T13:50:59.374Z,21.28
2018-01-11T13:53:26.870Z,21.28
2018-01-11T13:55:54.398Z,21.28
2018-01-11T13:58:21.892Z,21.27
2018-01-11T14:00:49.461Z,21.27
2018-01-11T14:03:17.795Z,21.27
2018-01-11T14:05:45.360Z,21.27
2018-01-11T14:08:12.966Z,21.28
2018-01-11T14:10:40.519Z,21.28
2018-01-11T14:13:08.002Z,21.27
2018-01-11T14:15:35.518Z,21.27
2018-01-11T14:18:03.077Z,21.28
2018-01-11T14:20:30.627Z,21.28
2018-01-11T14:22:58.114Z,21.29
2018-01-11T14:25:25.676Z,21.29
2018-01-11T14:27:53.268Z,21.30
2018-01-11T14:30:20.821Z,21.31
2018-01-11T14:32:48.387Z,21.31
2018-01-11T14:35:15.997Z,21.31
2018-01-11T14:37:43.556Z,21.31
2018-01-11T14:40:11.066Z,21.30
2018-01-11T14:42:38.639Z,21.30
2018-01-11T14:45:06.212Z,21.31
2018-01-11T14:47:33.764Z,21.32
2018-01-11T14:50:01.284Z,21.32
2018-01-11T14:52:28.814Z,21.31
2018-01-11T14:54:56.304Z,21.31
2018-01-11T14:57:23.781Z,21.30
2018-01-11T14:59:51.274Z,21.31
2018-01-11T15:02:18.824Z,21.29
2018-01-11T15:04:46.310Z,21.31
2018-01-11T15:07:13.881Z,21.31
2018-01-11T15:09:41.429Z,21.32
2018-01-11T15:12:08.905Z,21.32
2018-01-11T15:14:36.456Z,21.33
2018-01-11T15:17:03.946Z,21.32
2018-01-11T15:19:31.436Z,21.31
2018-01-11T15:21:58.983Z,21.30
2018-01-11T15:24:26.495Z,21.31
2018-01-11T15:26:54.048Z,21.31
2018-01-11T15:29:21.554Z,21.31
2018-01-11T15:31:49.054Z,21.31
2018-01-11T15:34:16.614Z,21.27
2018-01-11T15:36:44.160Z,21.29
2018-01-11T15:39:11.717Z,21.28
2018-01-11T15:41:39.270Z,21.27
2018-01-11T15:44:06.807Z,21.26
2018-01-11T15:46:34.286Z,21.25
2018-01-11T15:49:01.799Z,21.24
2018-01-11T15:51:29.365Z,21.23
2018-01-11T15:53:56.925Z,21.23
2018-01-11T15:56:24.481Z,21.22
2018-01-11T15:58:51.999Z,21.19
2018-01-11T16:01:19.537Z,21.17
2018-01-11T16:03:47.116Z,21.17
2018-01-11T16:06:14.695Z,21.17
2018-01-11T16:08:42.185Z,21.17
2018-01-11T16:11:09.737Z,21.18
2018-01-11T16:13:37.305Z,21.17
2018-01-11T16:16:04.888Z,21.14
2018-01-11T16:18:32.403Z,21.15
2018-01-11T16:20:59.921Z,21.18
2018-01-11T16:23:27.486Z,21.19
2018-01-11T16:25:55.047Z,21.19
2018-01-11T16:28:22.605Z,21.21
2018-01-11T16:30:50.163Z,21.21
2018-01-11T16:33:17.666Z,21.22
2018-01-11T16:35:45.236Z,21.22
2018-01-11T16:38:12.772Z,21.22
2018-01-11T16:40:40.331Z,21.23
2018-01-11T16:43:07.868Z,21.23
2018-01-11T16:45:35.386Z,21.24
2018-01-11T16:48:02.951Z,21.24
2018-01-11T16:50:30.493Z,21.25
2018-01-11T16:52:58.052Z,21.23
2018-01-11T16:55:25.685Z,21.28
2018-01-11T16:57:53.210Z,21.33
2018-01-11T17:00:20.811Z,21.42
2018-01-11T17:02:48.444Z,21.51
2018-01-11T17:05:16.031Z,21.60
2018-01-11T17:07:43.607Z,21.64
2018-01-11T17:10:11.105Z,21.67
2018-01-11T17:12:38.602Z,21.67
2018-01-11T17:15:06.189Z,21.68
2018-01-11T17:17:33.686Z,21.67
2018-01-11T17:20:01.180Z,21.68
2018-01-11T17:22:28.825Z,21.65
2018-01-11T17:24:56.422Z,21.61
2018-01-11T17:27:24.026Z,21.59
2018-01-11T17:29:51.608Z,21.57
2018-01-11T17:32:19.109Z,21.54
2018-01-11T17:34:46.705Z,21.51
2018-01-11T17:37:14.263Z,21.48
2018-01-11T17:39:41.825Z,21.45
2018-01-11T17:42:09.375Z,21.43
2018-01-11T17:44:36.969Z,21.40
2018-01-11T17:47:04.589Z,21.39
2018-01-11T17:49:32.110Z,21.38
2018-01-11T17:51:59.670Z,21.37
2018-01-11T17:54:27.237Z,21.37
2018-01-11T17:56:54.773Z,21.36
2018-01-11T17:59:22.387Z,21.34
2018-01-11T18:01:50.905Z,21.34
2018-01-11T18:04:18.414Z,21.34
2018-01-11T18:06:45.943Z,21.33
2018-01-11T18:09:13.530Z,21.34
2018-01-11T18:11:41.064Z,21.32
2018-01-11T18:14:08.625Z,21.33
2018-01-11T18:16:36.145Z,21.32
2018-01-11T18:19:03.733Z,21.37
2018-01-11T18:21:31.306Z,21.39
2018-01-11T18:23:58.826Z,21.39
2018-01-11T18:26:26.444Z,21.40
2018-01-11T18:28:53.962Z,21.43
2018-01-11T18:31:21.532Z,21.46
2018-01-11T18:33:49.109Z,21.50
2018-01-11T18:36:16.675Z,21.55
2018-01-11T18:38:44.202Z,21.59
2018-01-11T18:41:11.773Z,21.62
2018-01-11T18:43:39.349Z,21.65
2018-01-11T18:46:06.866Z,21.68
2018-01-11T18:48:34.438Z,21.70
2018-01-11T18:51:01.941Z,21.74
2018-01-11T18:53:29.539Z,21.75
2018-01-11T18:55:57.126Z,21.79
2018-01-11T18:58:24.680Z,21.78
2018-01-11T19:00:52.244Z,21.77
2018-01-11T19:03:19.812Z,21.78
2018-01-11T19:05:47.505Z,21.80
2018-01-11T19:08:15.069Z,21.80
2018-01-11T19:10:42.591Z,21.78
2018-01-11T19:13:10.151Z,21.78
2018-01-11T19:15:37.724Z,21.78
2018-01-11T19:18:05.350Z,21.77
2018-01-11T19:20:32.917Z,21.79
2018-01-11T19:23:00.403Z,21.79
2018-01-11T19:25:27.975Z,21.74
2018-01-11T19:27:55.540Z,21.76
2018-01-11T19:30:23.139Z,21.72
2018-01-11T19:32:50.666Z,21.73
2018-01-11T19:35:18.248Z,21.74
2018-01-11T19:37:45.820Z,21.78
2018-01-11T19:40:13.405Z,21.78
2018-01-11T19:42:40.930Z,21.77
2018-01-11T19:45:08.432Z,21.76
2018-01-11T19:47:35.917Z,21.78
2018-01-11T19:50:03.502Z,21.77
2018-01-11T19:52:31.162Z,21.80
2018-01-11T19:54:58.669Z,21.80
2018-01-11T19:57:26.239Z,21.80
2018-01-11T19:59:53.821Z,21.78
2018-01-11T20:02:21.318Z,21.78
2018-01-11T20:04:48.951Z,21.80
2018-01-11T20:07:16.526Z,21.79
2018-01-11T20:09:44.111Z,21.78
2018-01-11T20:12:11.790Z,21.75
2018-01-11T20:14:39.285Z,21.71
2018-01-11T20:17:06.848Z,21.70
2018-01-11T20:19:34.422Z,21.68
2018-01-11T20:22:02.089Z,21.66
2018-01-11T20:24:29.601Z,21.66
2018-01-11T20:26:57.234Z,21.65
2018-01-11T20:29:24.820Z,21.64
2018-01-11T20:31:52.481Z,21.63
2018-01-11T20:34:23.527Z,21.65
2018-01-11T20:36:56.251Z,21.65
2018-01-11T20:39:26.465Z,21.62
2018-01-11T20:41:54.637Z,21.63
2018-01-11T21:02:14.682Z,21.56
2018-01-11T21:04:42.287Z,21.57
2018-01-11T21:07:09.791Z,21.56
2018-01-11T21:09:38.351Z,21.55
2018-01-11T21:12:06.157Z,21.54
2018-01-11T21:14:33.956Z,21.53
2018-01-11T21:24:36.547Z,21.49
2018-01-11T21:39:42.482Z,21.43
2018-01-11T21:42:10.085Z,21.42
2018-01-11T21:44:37.653Z,21.40
2018-01-11T21:47:05.170Z,21.40
2018-01-11T21:49:32.689Z,21.39
2018-01-11T21:57:03.738Z,21.37
2018-01-11T21:59:31.338Z,21.37
2018-01-11T22:01:59.152Z,21.36
2018-01-11T22:04:26.734Z,21.36
2018-01-11T22:42:17.783Z,21.30
2018-01-11T22:52:20.791Z,21.31
2018-01-11T22:57:20.180Z,21.30
2018-01-11T22:59:47.804Z,21.30
2018-01-11T23:02:15.368Z,21.30
2018-01-11T23:04:42.945Z,21.30
2018-01-11T23:07:10.661Z,21.31
2018-01-11T23:09:38.246Z,21.30
2018-01-11T23:12:06.084Z,21.30
2018-01-11T23:24:40.281Z,21.29
2018-01-11T23:27:07.847Z,21.29
2018-01-11T23:29:35.432Z,21.29
2018-01-11T23:32:03.011Z,21.29
2018-01-11T23:34:30.886Z,21.28
2018-01-11T23:36:58.705Z,21.29
2018-01-11T23:39:26.756Z,21.29
2018-01-11T23:41:54.275Z,21.29
2018-01-11T23:44:22.086Z,21.27
2018-01-11T23:46:49.888Z,21.28
2018-01-11T23:49:17.464Z,21.30
2018-01-11T23:51:45.036Z,21.30
2018-01-11T23:54:12.609Z,21.29
2018-01-11T23:56:40.196Z,21.29
2018-01-11T23:59:08.029Z,21.29
